Archival Weather

Snohomish County (Paine Fld)

Everett, Washington (KPAE)

Report from: Sunday, October 29, 2023 9:53 PM PDT
Current time: Monday, June 24, 2024 4:11 AM PDT

Current weather – Weather history – Daily summaries
Weather forecast

Temperature5.6°C (42.1°F)
Wind chill4.6°C (40.2°F)
Dew point2.8°C (37.0°F)
Winds 3 kts (1.5 m/s, 3.5 mph) North (10°)
Visibility10 mi. (16.1 km)
Clouds Sky clear
Altimeter30.38 in.Hg (1029 mB)
Relative humidity82 %
Density altitude-1,567 ft. (-478 m)
Sea-level pressure102.9 kPa (1029 mB, 30.40 in.Hg)
Remarks Fully automated report
Automated weather observing station with precipitation discriminator
Flight conditions Visual Meteorological Conditions
Raw dataKPAE 300453Z AUTO 01003KT 10SM CLR 06/03 A3038 RMK AO2 SLP293 T00560028
An error has occurred. This application may no longer respond until reloaded. Reload 🗙